Jessica S. Settoon — WDD9545 — position and weather

sailwx.info

Track history (hours):
 
Tides and Currents Weather Stations Pressure Air Temp Water Temp Dewpoint Dewpoint Depression Visibility Wind Speed Wind Dir Waves Ship Positions

Jessica S. Settoon

Owner: Settoon Towing LLC, Houma, LA. More information available from US FCC via Universal Licensing System and Coast Guard Vessel Documentation Center.

Last reported at 2017-Oct-18 07:28 UTC. Time now 2017-Oct-18 07:52 UTC.
Position N 29°34' W 090°57'.

Length 17 m; draft 3 m.

Type: Tug. MMSI: 367312940.

Date/timePositionNaut miles runAvg speedWind from/ knotsBaromVisibWave heightAir tempDewpointWater temp
2017-Oct-18 07:28N 29°34' W 090°57'3 5.9
2017-Oct-18 06:58N 29°33' W 090°54'3 5.9
2017-Oct-18 06:30N 29°32' W 090°51'3 6.1
2017-Oct-18 06:00N 29°32' W 090°47'2 5.0
2017-Oct-18 05:30N 29°34' W 090°45'2 4.6
2017-Oct-18 05:00N 29°35' W 090°43'2 4.0
2017-Oct-18 04:30N 29°37' W 090°42'1 1.0
2017-Oct-18 04:00N 29°37' W 090°42'2 4.2
2017-Oct-18 03:30N 29°36' W 090°39'3 5.3
2017-Oct-18 03:00N 29°35' W 090°37'3 5.4
2017-Oct-18 02:30N 29°34' W 090°34'3 5.7
2017-Oct-18 02:00N 29°34' W 090°30'5 0.2
2017-Oct-17 01:43N 29°33' W 090°25'2 6.9
2017-Oct-17 01:29N 29°33' W 090°26'3 6.9
2017-Oct-17 01:00N 29°34' W 090°30'3 6.7
2017-Oct-17 00:30N 29°34' W 090°34'3 6.4
2017-Oct-17 00:00N 29°35' W 090°38'3 6.6
2017-Oct-16 23:30N 29°36' W 090°41'2 3.8
2017-Oct-16 23:00N 29°35' W 090°43'3 5.1
2017-Oct-16 22:30N 29°34' W 090°45'3 6.0
2017-Oct-16 21:58N 29°32' W 090°48'9 1.4
2017-Oct-16 15:23N 29°36' W 090°58'3 6.2
2017-Oct-16 14:58N 29°34' W 090°56'3 6.3
2017-Oct-16 14:29N 29°32' W 090°53'6 6.0
2017-Oct-16 13:30N 29°32' W 090°46'3 5.5
2017-Oct-16 13:00N 29°34' W 090°44'1 2.3
2017-Oct-16 12:30N 29°35' W 090°43'0 0.0
2017-Oct-16 12:00N 29°35' W 090°43'0 0.2
2017-Oct-16 11:30N 29°35' W 090°43'2 4.3
2017-Oct-16 11:00N 29°37' W 090°42'0 0.5
2017-Oct-16 10:30N 29°37' W 090°42'3 5.2
2017-Oct-16 10:00N 29°36' W 090°39'3 5.8
2017-Oct-16 09:30N 29°35' W 090°36'2 3.8
2017-Oct-16 08:59N 29°34' W 090°34'3 6.0
2017-Oct-16 08:29N 29°34' W 090°30'5 0.2
2017-Oct-15 06:12N 29°33' W 090°24'2 6.9
2017-Oct-15 05:59N 29°33' W 090°26'3 6.9
2017-Oct-15 05:30N 29°34' W 090°30'3 6.8
2017-Oct-15 05:00N 29°34' W 090°34'3 6.4
2017-Oct-15 04:30N 29°35' W 090°37'3 6.1
2017-Oct-15 04:00N 29°36' W 090°40'2 4.1
2017-Oct-15 03:30N 29°36' W 090°43'2 3.7
2017-Oct-15 03:00N 29°34' W 090°43'3 6.2
2017-Oct-15 02:30N 29°32' W 090°46'  
2017-Oct-11 00:00N 29°27' W 090°43'5 0.2
2017-Oct-09 18:00N 29°22' W 090°44'3 5.6
2017-Oct-09 17:30N 29°25' W 090°43'3 6.6
2017-Oct-09 17:00N 29°28' W 090°43'3 6.6
2017-Oct-09 16:30N 29°32' W 090°42'3 5.2
2017-Oct-09 16:00N 29°34' W 090°43'3 5.5
2017-Oct-09 15:30N 29°33' W 090°46'3 5.8
2017-Oct-09 14:59N 29°32' W 090°49'  
Track history (hours):
 
Tides and Currents Weather Stations Pressure Air Temp Water Temp Dewpoint Dewpoint Depression Visibility Wind Speed Wind Dir Waves Ship Positions

Jessica S. Settoon

Owner: Settoon Towing LLC, Houma, LA. More information available from US FCC via Universal Licensing System and Coast Guard Vessel Documentation Center.

Last reported at 2017-Oct-18 07:28 UTC. Time now 2017-Oct-18 07:52 UTC.
Position N 29°34' W 090°57'.

Length 17 m; draft 3 m.

Type: Tug. MMSI: 367312940.

Date/timePositionNaut miles runAvg speedWind from/ knotsBaromVisibWave heightAir tempDewpointWater temp
2017-Oct-18 07:28N 29°34' W 090°57'3 5.9
2017-Oct-18 06:58N 29°33' W 090°54'3 5.9
2017-Oct-18 06:30N 29°32' W 090°51'3 6.1
2017-Oct-18 06:00N 29°32' W 090°47'2 5.0
2017-Oct-18 05:30N 29°34' W 090°45'2 4.6
2017-Oct-18 05:00N 29°35' W 090°43'2 4.0
2017-Oct-18 04:30N 29°37' W 090°42'1 1.0
2017-Oct-18 04:00N 29°37' W 090°42'2 4.2
2017-Oct-18 03:30N 29°36' W 090°39'3 5.3
2017-Oct-18 03:00N 29°35' W 090°37'3 5.4
2017-Oct-18 02:30N 29°34' W 090°34'3 5.7
2017-Oct-18 02:00N 29°34' W 090°30'5 0.2
2017-Oct-17 01:43N 29°33' W 090°25'2 6.9
2017-Oct-17 01:29N 29°33' W 090°26'3 6.9
2017-Oct-17 01:00N 29°34' W 090°30'3 6.7
2017-Oct-17 00:30N 29°34' W 090°34'3 6.4
2017-Oct-17 00:00N 29°35' W 090°38'3 6.6
2017-Oct-16 23:30N 29°36' W 090°41'2 3.8
2017-Oct-16 23:00N 29°35' W 090°43'3 5.1
2017-Oct-16 22:30N 29°34' W 090°45'3 6.0
2017-Oct-16 21:58N 29°32' W 090°48'9 1.4
2017-Oct-16 15:23N 29°36' W 090°58'3 6.2
2017-Oct-16 14:58N 29°34' W 090°56'3 6.3
2017-Oct-16 14:29N 29°32' W 090°53'6 6.0
2017-Oct-16 13:30N 29°32' W 090°46'3 5.5
2017-Oct-16 13:00N 29°34' W 090°44'1 2.3
2017-Oct-16 12:30N 29°35' W 090°43'0 0.0
2017-Oct-16 12:00N 29°35' W 090°43'0 0.2
2017-Oct-16 11:30N 29°35' W 090°43'2 4.3
2017-Oct-16 11:00N 29°37' W 090°42'0 0.5
2017-Oct-16 10:30N 29°37' W 090°42'3 5.2
2017-Oct-16 10:00N 29°36' W 090°39'3 5.8
2017-Oct-16 09:30N 29°35' W 090°36'2 3.8
2017-Oct-16 08:59N 29°34' W 090°34'3 6.0
2017-Oct-16 08:29N 29°34' W 090°30'5 0.2
2017-Oct-15 06:12N 29°33' W 090°24'2 6.9
2017-Oct-15 05:59N 29°33' W 090°26'3 6.9
2017-Oct-15 05:30N 29°34' W 090°30'3 6.8
2017-Oct-15 05:00N 29°34' W 090°34'3 6.4
2017-Oct-15 04:30N 29°35' W 090°37'3 6.1
2017-Oct-15 04:00N 29°36' W 090°40'2 4.1
2017-Oct-15 03:30N 29°36' W 090°43'2 3.7
2017-Oct-15 03:00N 29°34' W 090°43'3 6.2
2017-Oct-15 02:30N 29°32' W 090°46'  
2017-Oct-11 00:00N 29°27' W 090°43'5 0.2
2017-Oct-09 18:00N 29°22' W 090°44'3 5.6
2017-Oct-09 17:30N 29°25' W 090°43'3 6.6
2017-Oct-09 17:00N 29°28' W 090°43'3 6.6
2017-Oct-09 16:30N 29°32' W 090°42'3 5.2
2017-Oct-09 16:00N 29°34' W 090°43'3 5.5
2017-Oct-09 15:30N 29°33' W 090°46'3 5.8
2017-Oct-09 14:59N 29°32' W 090°49'  

Dump ship's entire track history